createdAt,value
2023-02-05T00:03:04.550Z,102387.81
2023-02-05T00:08:11.449Z,102378.84
2023-02-05T00:13:13.162Z,102387.59
2023-02-05T00:18:15.010Z,102379.97
2023-02-05T00:23:16.680Z,102379.81
2023-02-05T00:28:18.231Z,102387.44
2023-02-05T00:33:20.111Z,102381.81
2023-02-05T00:38:21.891Z,102380.72
2023-02-05T00:43:24.587Z,102384.41
2023-02-05T00:48:26.145Z,102384.44
2023-02-05T00:53:28.186Z,102380.72
2023-02-05T00:58:29.747Z,102380.38
2023-02-05T01:03:31.408Z,102383.94
2023-02-05T01:08:33.158Z,102393.03
2023-02-05T01:13:34.731Z,102384.41
2023-02-05T01:18:36.708Z,102400.75
2023-02-05T01:23:38.291Z,102394.63
2023-02-05T01:28:39.914Z,102382.59
2023-02-05T01:33:41.497Z,102368.78
2023-02-05T01:38:43.050Z,102342.78
2023-02-05T01:44:15.204Z,102343.50
2023-02-05T01:49:41.191Z,102333.78
2023-02-05T01:54:48.807Z,102327.88
2023-02-05T01:59:50.891Z,102324.09
2023-02-05T02:04:57.806Z,102316.38
2023-02-05T02:09:59.874Z,102318.47
2023-02-05T02:15:10.648Z,102330.34
2023-02-05T02:20:16.907Z,102315.94
2023-02-05T02:25:18.444Z,102294.34
2023-02-05T02:30:26.303Z,102289.09
2023-02-05T02:35:48.266Z,102270.31
2023-02-05T02:40:58.231Z,102261.09
2023-02-05T02:46:08.107Z,102283.06
2023-02-05T02:51:12.418Z,102295.69
2023-02-05T02:56:14.951Z,102280.81
2023-02-05T03:01:23.525Z,102279.72
2023-02-05T03:06:26.890Z,102281.97
2023-02-05T03:11:29.762Z,102272.50
2023-02-05T03:16:34.088Z,102275.84
2023-02-05T03:21:41.991Z,102271.06
2023-02-05T03:26:43.806Z,102260.25
2023-02-05T03:32:14.870Z,102261.72
2023-02-05T03:37:26.648Z,102275.59
2023-02-05T03:42:58.802Z,102268.09
2023-02-05T03:48:38.039Z,102261.56
2023-02-05T03:53:49.855Z,102267.09
2023-02-05T03:58:56.643Z,102259.72
2023-02-05T04:04:00.380Z,102252.81
2023-02-05T04:09:03.604Z,102260.94
2023-02-05T04:14:05.636Z,102260.66
2023-02-05T04:19:08.175Z,102258.19
2023-02-05T04:24:09.904Z,102263.22
2023-02-05T04:29:12.414Z,102263.03
2023-02-05T04:34:18.729Z,102285.63
2023-02-05T04:39:20.421Z,102299.44
2023-02-05T04:44:22.890Z,102302.63
2023-02-05T04:49:24.433Z,102305.19
2023-02-05T04:54:28.288Z,102323.13
2023-02-05T04:59:32.662Z,102327.91
2023-02-05T05:04:34.213Z,102322.72
2023-02-05T05:09:38.979Z,102315.53
2023-02-05T05:14:40.748Z,102306.16
2023-02-05T05:19:42.485Z,102312.31
2023-02-05T05:24:44.231Z,102319.38
2023-02-05T05:29:46.713Z,102314.56
2023-02-05T05:34:48.424Z,102296.91
2023-02-05T05:40:08.337Z,102284.09
2023-02-05T05:45:10.398Z,102290.66
2023-02-05T05:50:12.016Z,102291.06
2023-02-05T05:55:13.572Z,102285.00
2023-02-05T06:00:15.523Z,102293.31
2023-02-05T06:05:19.423Z,102302.69
2023-02-05T06:10:21.078Z,102307.44
2023-02-05T06:15:22.836Z,102299.41
2023-02-05T06:20:24.446Z,102304.00
2023-02-05T06:25:26.005Z,102312.28
2023-02-05T06:30:27.784Z,102321.97
2023-02-05T06:35:29.353Z,102326.25
2023-02-05T06:40:30.880Z,102329.50
2023-02-05T06:45:32.903Z,102340.13
2023-02-05T06:50:34.671Z,102353.56
2023-02-05T06:55:39.650Z,102345.63
2023-02-05T07:00:41.832Z,102330.44
2023-02-05T07:05:43.543Z,102330.06
2023-02-05T07:10:45.301Z,102345.81
2023-02-05T07:15:47.483Z,102349.91
2023-02-05T07:20:49.263Z,102340.34
2023-02-05T07:25:51.092Z,102324.13
2023-02-05T07:30:52.683Z,102306.31
2023-02-05T07:35:54.752Z,102289.59
2023-02-05T07:40:59.735Z,102246.28
2023-02-05T07:46:07.754Z,102249.22
2023-02-05T07:51:17.154Z,102242.72
2023-02-05T07:56:21.853Z,102245.34
2023-02-05T08:01:23.486Z,102244.84
2023-02-05T08:06:25.778Z,102242.31
2023-02-05T08:11:27.495Z,102255.75
2023-02-05T08:16:29.080Z,102245.06
2023-02-05T08:21:32.836Z,102240.09
2023-02-05T08:26:34.386Z,102242.78
2023-02-05T08:31:36.922Z,102242.38
2023-02-05T08:36:38.685Z,102232.25
2023-02-05T08:41:40.320Z,102213.69
2023-02-05T08:46:49.707Z,102214.44
2023-02-05T08:51:53.929Z,102204.91
2023-02-05T08:56:55.648Z,102201.22
2023-02-05T09:01:57.233Z,102193.66
2023-02-05T09:06:58.999Z,102182.81
2023-02-05T09:12:01.208Z,102181.69
2023-02-05T09:17:08.068Z,102180.09
2023-02-05T09:22:10.000Z,102185.25
2023-02-05T09:27:14.262Z,102186.81
2023-02-05T09:32:15.863Z,102181.97
2023-02-05T09:37:18.015Z,102170.69
2023-02-05T09:43:01.121Z,102189.09
2023-02-05T09:48:10.271Z,102207.13
2023-02-05T09:53:15.713Z,102198.81
2023-02-05T09:58:21.451Z,102209.09
2023-02-05T10:03:29.219Z,102200.78
2023-02-05T10:08:41.138Z,102228.25
2023-02-05T10:13:45.344Z,102232.94
2023-02-05T10:18:56.276Z,102235.22
2023-02-05T10:24:08.957Z,102224.34
2023-02-05T10:29:21.928Z,102224.22
2023-02-05T10:34:38.605Z,102210.81
2023-02-05T10:39:40.876Z,102194.69
2023-02-05T10:44:49.148Z,102198.38
2023-02-05T10:50:01.293Z,102187.25
2023-02-05T10:55:03.038Z,102181.13
2023-02-05T11:00:25.382Z,102161.84
2023-02-05T11:05:37.310Z,102150.84
2023-02-05T11:10:39.047Z,102131.72
2023-02-05T11:15:59.246Z,102121.44
2023-02-05T11:21:03.055Z,102099.75
2023-02-05T11:26:23.166Z,102088.06
2023-02-05T11:31:28.831Z,102090.06
2023-02-05T11:36:31.548Z,102087.75
2023-02-05T11:41:48.376Z,102082.91
2023-02-05T11:46:56.785Z,102074.63
2023-02-05T11:51:59.246Z,102084.31
2023-02-05T11:57:05.503Z,102078.44
2023-02-05T12:02:25.667Z,102085.03
2023-02-05T12:07:33.334Z,102074.59
2023-02-05T12:12:46.799Z,102066.00
2023-02-05T12:17:51.142Z,102065.13
2023-02-05T12:23:07.729Z,102071.28
2023-02-05T12:28:36.893Z,102069.41
2023-02-05T12:34:05.898Z,102066.00
2023-02-05T12:39:34.008Z,102059.00
2023-02-05T12:44:42.887Z,102050.19
2023-02-05T12:49:56.155Z,102031.47
2023-02-05T12:55:25.946Z,102030.75
2023-02-05T13:00:37.907Z,102023.47
2023-02-05T13:05:49.753Z,102020.25
2023-02-05T13:11:12.499Z,102017.44
2023-02-05T13:16:17.823Z,102009.81
2023-02-05T13:21:39.800Z,102014.78
2023-02-05T13:27:04.580Z,102007.09
2023-02-05T13:32:16.010Z,102000.03
2023-02-05T13:37:53.002Z,102012.59
2023-02-05T13:43:03.484Z,102009.88
2023-02-05T13:48:40.668Z,102008.84
2023-02-05T13:54:23.980Z,102002.09
2023-02-05T13:59:42.456Z,101990.63
2023-02-05T14:04:54.224Z,101992.31
2023-02-05T14:10:01.126Z,102002.19
2023-02-05T14:15:20.921Z,101998.16
2023-02-05T14:20:25.475Z,101988.91
2023-02-05T14:25:36.860Z,101987.09
2023-02-05T14:30:53.484Z,101986.91
2023-02-05T14:36:17.478Z,101984.19
2023-02-05T14:41:26.077Z,101997.47
2023-02-05T14:46:41.996Z,101989.31
2023-02-05T14:51:51.885Z,101987.16
2023-02-05T14:57:07.355Z,101983.81
2023-02-05T15:02:46.886Z,102001.75
2023-02-05T15:07:53.236Z,102001.75
2023-02-05T15:13:08.714Z,102003.38
2023-02-05T15:18:10.353Z,102018.84
2023-02-05T15:23:11.878Z,102005.00
2023-02-05T15:28:36.993Z,102013.69
2023-02-05T15:34:16.189Z,102014.44
2023-02-05T15:39:25.594Z,102017.91
2023-02-05T15:44:30.152Z,102025.00
2023-02-05T15:49:37.478Z,102023.44
2023-02-05T15:54:40.156Z,102028.38
2023-02-05T15:59:42.051Z,102029.50
2023-02-05T16:04:43.761Z,102030.13
2023-02-05T16:09:52.825Z,102046.28
2023-02-05T16:15:00.517Z,102059.59
2023-02-05T16:20:12.764Z,102068.44
2023-02-05T16:25:41.299Z,102073.16
2023-02-05T16:30:47.624Z,102071.31
2023-02-05T16:35:49.434Z,102082.28
2023-02-05T16:40:55.033Z,102081.28
2023-02-05T16:46:08.933Z,102090.94
2023-02-05T16:51:52.689Z,102099.78
2023-02-05T16:57:28.698Z,102097.50
2023-02-05T17:02:39.530Z,102102.22
2023-02-05T17:07:41.990Z,102111.63
2023-02-05T17:12:50.403Z,102115.47
2023-02-05T17:17:55.556Z,102131.03
2023-02-05T17:23:05.861Z,102143.94
2023-02-05T17:28:13.079Z,102149.09
2023-02-05T17:33:20.428Z,102146.97
2023-02-05T17:38:23.700Z,102155.81
2023-02-05T17:43:25.313Z,102153.69
2023-02-05T17:48:26.855Z,102152.41
2023-02-05T17:53:29.007Z,102155.56
2023-02-05T17:58:30.628Z,102155.09
2023-02-05T18:03:32.198Z,102165.97
2023-02-05T18:08:36.314Z,102169.69
2023-02-05T18:13:38.259Z,102172.81
2023-02-05T18:18:40.032Z,102190.84
2023-02-05T18:23:41.816Z,102186.56
2023-02-05T18:28:43.590Z,102185.09
2023-02-05T18:33:45.156Z,102193.81
2023-02-05T18:38:46.698Z,102199.81
2023-02-05T18:43:48.530Z,102202.91
2023-02-05T18:48:54.692Z,102213.34
2023-02-05T18:53:58.545Z,102223.47
2023-02-05T18:59:06.305Z,102237.44
2023-02-05T19:04:11.050Z,102239.00
2023-02-05T19:09:12.634Z,102253.28
2023-02-05T19:14:16.419Z,102262.88
2023-02-05T19:19:21.389Z,102273.13
2023-02-05T19:24:23.035Z,102263.28
2023-02-05T19:29:25.713Z,102274.41
2023-02-05T19:34:28.021Z,102282.81
2023-02-05T19:39:29.576Z,102289.50
2023-02-05T19:44:32.182Z,102291.63
2023-02-05T19:49:33.914Z,102300.78
2023-02-05T19:54:36.068Z,102300.91
2023-02-05T19:59:37.732Z,102319.16
2023-02-05T20:04:40.717Z,102340.25
2023-02-05T20:09:42.467Z,102326.81
2023-02-05T20:14:44.187Z,102317.97
2023-02-05T20:19:45.771Z,102323.38
2023-02-05T20:24:47.449Z,102318.81
2023-02-05T20:30:07.701Z,102324.22
2023-02-05T20:35:09.382Z,102332.38
2023-02-05T20:40:11.417Z,102323.38
2023-02-05T20:45:12.951Z,102336.22
2023-02-05T20:50:14.749Z,102341.75
2023-02-05T20:55:16.513Z,102344.63
2023-02-05T21:00:19.797Z,102357.59
2023-02-05T21:05:21.502Z,102358.72
2023-02-05T21:10:23.064Z,102363.38
2023-02-05T21:15:24.752Z,102381.63
2023-02-05T21:20:27.462Z,102386.31
2023-02-05T21:25:29.008Z,102383.59
2023-02-05T21:30:30.663Z,102397.16
2023-02-05T21:35:32.282Z,102400.16
2023-02-05T21:40:34.386Z,102406.53
2023-02-05T21:45:37.016Z,102407.44
2023-02-05T21:50:41.047Z,102421.94
2023-02-05T21:55:42.611Z,102432.72
2023-02-05T22:00:44.131Z,102457.13
2023-02-05T22:05:45.750Z,102468.03
2023-02-05T22:10:47.285Z,102501.28
2023-02-05T22:15:48.939Z,102532.28
2023-02-05T22:20:50.612Z,102557.28
2023-02-05T22:25:52.219Z,102596.66
2023-02-05T22:31:01.589Z,102620.63
2023-02-05T22:36:04.297Z,102650.75
2023-02-05T22:41:14.958Z,102659.00
2023-02-05T22:46:19.607Z,102671.78
2023-02-05T22:51:38.933Z,102671.03
2023-02-05T22:56:40.568Z,102676.81
2023-02-05T23:01:42.197Z,102673.47
2023-02-05T23:06:45.144Z,102660.19
2023-02-05T23:11:46.760Z,102665.31
2023-02-05T23:16:48.357Z,102680.91
2023-02-05T23:21:50.114Z,102683.38
2023-02-05T23:26:53.471Z,102668.38
2023-02-05T23:31:55.050Z,102645.63
2023-02-05T23:36:56.612Z,102627.13
2023-02-05T23:41:58.205Z,102606.09
2023-02-05T23:46:59.911Z,102598.13
2023-02-05T23:52:01.481Z,102590.75
2023-02-05T23:57:03.089Z,102579.22
